Time,TemperatureF,DewpointF,PressureIn,WindDirection,WindDirectionDegrees,WindSpeedMPH,WindSpeedGustMPH,Humidity,HourlyPrecipIn,Conditions,Clouds,dailyrainin,SoftwareType,DateUTC
2013-02-25 00:00:00,32.0,31.2,29.91,East,88,1.0,0.0,97,0.01,,,0.00,WeatherTracker,2013-02-25 05:00:00,
2013-02-25 00:05:00,32.0,31.2,29.90,East,92,0.0,0.0,97,0.01,,,0.00,WeatherTracker,2013-02-25 05:05:00,
2013-02-25 00:10:00,32.0,31.2,29.91,NE,41,1.0,0.0,97,0.01,,,0.00,WeatherTracker,2013-02-25 05:10:00,
2013-02-25 00:15:00,32.0,31.2,29.91,ENE,73,1.0,0.0,97,0.01,,,0.00,WeatherTracker,2013-02-25 05:15:00,
2013-02-25 00:25:00,31.9,31.1,29.91,East,83,1.0,0.0,97,0.01,,,0.00,WeatherTracker,2013-02-25 05:25:00,
2013-02-25 00:30:00,31.9,31.1,29.91,East,90,2.0,0.0,97,0.00,,,0.00,WeatherTracker,2013-02-25 05:30:00,
2013-02-25 00:35:00,31.9,31.1,29.92,West,277,0.0,0.0,97,0.00,,,0.00,WeatherTracker,2013-02-25 05:35:00,
2013-02-25 00:40:00,31.9,31.1,29.92,East,82,0.0,0.0,97,0.00,,,0.00,WeatherTracker,2013-02-25 05:40:00,
2013-02-25 00:50:00,31.8,31.0,29.93,East,85,0.0,0.0,97,0.00,,,0.00,WeatherTracker,2013-02-25 05:50:00,
2013-02-25 01:00:00,31.7,30.9,29.93,ENE,71,0.0,0.0,97,0.00,,,0.00,WeatherTracker,2013-02-25 06:00:00,
2013-02-25 01:10:00,31.7,30.9,29.93,NE,45,0.0,0.0,97,0.00,,,0.00,WeatherTracker,2013-02-25 06:10:00,
2013-02-25 01:15:00,31.6,30.8,29.93,NE,41,0.0,0.0,97,0.00,,,0.00,WeatherTracker,2013-02-25 06:15:00,
2013-02-25 01:25:00,31.5,30.7,29.93,ENE,59,2.0,0.0,97,0.00,,,0.00,WeatherTracker,2013-02-25 06:25:00,
2013-02-25 01:30:00,31.5,30.7,29.93,ENE,70,0.0,0.0,97,0.00,,,0.00,WeatherTracker,2013-02-25 06:30:00,
2013-02-25 01:40:00,31.5,30.7,29.94,East,82,0.0,0.0,97,0.00,,,0.00,WeatherTracker,2013-02-25 06:40:00,
2013-02-25 01:45:00,31.4,30.6,29.94,East,92,1.0,0.0,97,0.00,,,0.00,WeatherTracker,2013-02-25 06:45:00,
2013-02-25 01:50:00,31.5,30.7,29.94,ENE,63,0.0,0.0,97,0.00,,,0.00,WeatherTracker,2013-02-25 06:50:00,
2013-02-25 02:00:00,31.5,30.7,29.94,ENE,66,0.0,0.0,97,0.00,,,0.00,WeatherTracker,2013-02-25 07:00:00,
2013-02-25 02:10:00,31.5,30.7,29.94,ENE,70,0.0,0.0,97,0.00,,,0.00,WeatherTracker,2013-02-25 07:10:00,
2013-02-25 02:15:00,31.5,30.7,29.94,ENE,69,0.0,0.0,97,0.00,,,0.00,WeatherTracker,2013-02-25 07:15:00,
2013-02-25 02:20:00,31.6,30.8,29.94,ENE,67,0.0,0.0,97,0.00,,,0.00,WeatherTracker,2013-02-25 07:20:00,
2013-02-25 02:30:00,31.6,30.8,29.94,ENE,64,0.0,0.0,97,0.00,,,0.00,WeatherTracker,2013-02-25 07:30:00,
2013-02-25 02:35:00,31.7,30.9,29.94,ENE,65,0.0,0.0,97,0.00,,,0.00,WeatherTracker,2013-02-25 07:35:00,
2013-02-25 02:45:00,31.7,30.9,29.95,ENE,65,0.0,0.0,97,0.00,,,0.00,WeatherTracker,2013-02-25 07:45:00,
2013-02-25 02:50:00,31.7,30.9,29.95,ENE,65,0.0,0.0,97,0.00,,,0.00,WeatherTracker,2013-02-25 07:50:00,
2013-02-25 03:00:00,31.7,30.9,29.95,ENE,65,0.0,0.0,97,0.00,,,0.00,WeatherTracker,2013-02-25 08:00:00,
2013-02-25 03:05:00,31.7,30.9,29.95,ENE,65,0.0,0.0,97,0.00,,,0.00,WeatherTracker,2013-02-25 08:05:00,
2013-02-25 03:10:00,31.8,31.0,29.95,ENE,65,0.0,0.0,97,0.00,,,0.00,WeatherTracker,2013-02-25 08:10:00,
2013-02-25 03:20:00,31.8,31.0,29.95,East,89,0.0,0.0,97,0.00,,,0.00,WeatherTracker,2013-02-25 08:20:00,
2013-02-25 03:25:00,31.8,31.0,29.95,ESE,119,0.0,0.0,97,0.00,,,0.00,WeatherTracker,2013-02-25 08:25:00,
2013-02-25 03:35:00,31.8,31.0,29.95,ESE,109,0.0,0.0,97,0.00,,,0.00,WeatherTracker,2013-02-25 08:35:00,
2013-02-25 03:40:00,31.7,30.9,29.95,ESE,111,0.0,0.0,97,0.00,,,0.00,WeatherTracker,2013-02-25 08:40:00,
2013-02-25 03:50:00,31.6,30.8,29.96,ESE,108,0.0,0.0,97,0.00,,,0.00,WeatherTracker,2013-02-25 08:50:00,
2013-02-25 04:00:00,31.6,30.8,29.97,ESE,110,0.0,0.0,97,0.00,,,0.00,WeatherTracker,2013-02-25 09:00:00,
2013-02-25 04:10:00,31.6,30.8,29.97,East,86,0.0,0.0,97,0.00,,,0.00,WeatherTracker,2013-02-25 09:10:00,
2013-02-25 04:15:00,31.6,30.8,29.98,ESE,105,0.0,0.0,97,0.00,,,0.00,WeatherTracker,2013-02-25 09:15:00,
2013-02-25 04:25:00,31.7,30.9,29.98,ENE,63,1.0,0.0,97,0.00,,,0.00,WeatherTracker,2013-02-25 09:25:00,
2013-02-25 04:30:00,31.7,30.9,29.98,East,90,0.0,0.0,97,0.00,,,0.00,WeatherTracker,2013-02-25 09:30:00,
2013-02-25 04:40:00,31.7,30.9,29.99,East,94,1.0,0.0,97,0.00,,,0.00,WeatherTracker,2013-02-25 09:40:00,
2013-02-25 04:45:00,31.7,30.9,29.99,SE,124,2.0,0.0,97,0.00,,,0.00,WeatherTracker,2013-02-25 09:45:00,
2013-02-25 04:55:00,31.7,30.9,29.99,ESE,115,0.0,0.0,97,0.00,,,0.00,WeatherTracker,2013-02-25 09:55:00,
2013-02-25 05:05:00,31.7,30.9,30.00,ESE,118,0.0,0.0,97,0.00,,,0.00,WeatherTracker,2013-02-25 10:05:00,
2013-02-25 05:10:00,31.7,30.9,30.00,East,98,0.0,0.0,97,0.00,,,0.00,WeatherTracker,2013-02-25 10:10:00,
2013-02-25 05:15:00,31.6,30.8,30.00,East,97,0.0,0.0,97,0.00,,,0.00,WeatherTracker,2013-02-25 10:15:00,
2013-02-25 05:25:00,31.6,30.8,30.00,East,98,0.0,0.0,97,0.00,,,0.00,WeatherTracker,2013-02-25 10:25:00,
2013-02-25 05:35:00,31.5,30.7,30.00,East,98,0.0,0.0,97,0.00,,,0.00,WeatherTracker,2013-02-25 10:35:00,
2013-02-25 05:40:00,31.5,30.7,30.01,East,98,0.0,0.0,97,0.00,,,0.00,WeatherTracker,2013-02-25 10:40:00,
2013-02-25 05:50:00,31.4,30.6,30.01,East,98,0.0,0.0,97,0.00,,,0.00,WeatherTracker,2013-02-25 10:50:00,
2013-02-25 06:00:00,31.3,30.5,30.01,East,98,0.0,0.0,97,0.00,,,0.00,WeatherTracker,2013-02-25 11:00:00,
2013-02-25 06:10:00,31.0,30.3,30.02,East,98,0.0,0.0,97,0.00,,,0.00,WeatherTracker,2013-02-25 11:10:00,
2013-02-25 06:20:00,30.7,30.0,30.02,East,98,0.0,0.0,97,0.00,,,0.00,WeatherTracker,2013-02-25 11:20:00,
2013-02-25 06:25:00,30.5,29.8,30.02,East,98,0.0,0.0,97,0.00,,,0.00,WeatherTracker,2013-02-25 11:25:00,
2013-02-25 06:30:00,30.3,29.6,30.02,East,98,0.0,0.0,97,0.00,,,0.00,WeatherTracker,2013-02-25 11:30:00,
2013-02-25 06:35:00,30.1,29.4,30.02,East,98,0.0,0.0,97,0.00,,,0.00,WeatherTracker,2013-02-25 11:35:00,
2013-02-25 06:40:00,29.9,29.2,30.02,East,98,0.0,0.0,97,0.00,,,0.00,WeatherTracker,2013-02-25 11:40:00,
2013-02-25 06:50:00,29.7,29.0,30.03,East,98,0.0,0.0,97,0.00,,,0.00,WeatherTracker,2013-02-25 11:50:00,
2013-02-25 06:55:00,29.6,28.9,30.04,East,98,0.0,0.0,97,0.00,,,0.00,WeatherTracker,2013-02-25 11:55:00,
2013-02-25 07:00:00,29.6,28.9,30.04,East,97,0.0,0.0,97,0.00,,,0.00,WeatherTracker,2013-02-25 12:00:00,
2013-02-25 07:05:00,29.7,29.0,30.04,East,97,0.0,0.0,97,0.00,,,0.00,WeatherTracker,2013-02-25 12:05:00,
2013-02-25 07:15:00,30.1,29.4,30.05,NW,313,1.0,0.0,97,0.00,,,0.00,WeatherTracker,2013-02-25 12:15:00,
2013-02-25 07:20:00,30.2,29.5,30.05,NW,312,1.0,0.0,97,0.00,,,0.00,WeatherTracker,2013-02-25 12:20:00,
2013-02-25 07:25:00,30.4,29.7,30.05,NW,312,0.0,0.0,97,0.00,,,0.00,WeatherTracker,2013-02-25 12:25:00,
2013-02-25 07:35:00,30.7,30.0,30.05,NW,312,0.0,0.0,97,0.00,,,0.00,WeatherTracker,2013-02-25 12:35:00,
2013-02-25 07:40:00,30.9,30.2,30.05,NW,312,0.0,0.0,97,0.00,,,0.00,WeatherTracker,2013-02-25 12:40:00,
2013-02-25 07:45:00,31.1,30.3,30.06,NW,312,0.0,0.0,97,0.00,,,0.00,WeatherTracker,2013-02-25 12:45:00,
2013-02-25 07:50:00,31.3,30.8,30.06,NW,312,0.0,0.0,98,0.00,,,0.00,WeatherTracker,2013-02-25 12:50:00,
2013-02-25 08:00:00,31.8,31.0,30.06,NW,312,0.0,0.0,97,0.00,,,0.00,WeatherTracker,2013-02-25 13:00:00,
2013-02-25 08:10:00,32.4,31.9,30.06,NNE,24,0.0,0.0,98,0.00,,,0.00,WeatherTracker,2013-02-25 13:10:00,
2013-02-25 08:20:00,32.9,32.4,30.07,NNE,24,0.0,0.0,98,0.00,,,0.00,WeatherTracker,2013-02-25 13:20:00,
2013-02-25 08:30:00,33.5,32.7,30.07,North,350,1.0,0.0,97,0.00,,,0.00,WeatherTracker,2013-02-25 13:30:00,
2013-02-25 08:40:00,33.9,33.1,30.07,North,5,0.0,0.0,97,0.00,,,0.00,WeatherTracker,2013-02-25 13:40:00,
2013-02-25 08:45:00,34.2,33.4,30.07,NNE,21,2.0,0.0,97,0.00,,,0.00,WeatherTracker,2013-02-25 13:45:00,
2013-02-25 08:55:00,34.3,33.3,30.07,NNW,329,1.0,0.0,96,0.00,,,0.00,WeatherTracker,2013-02-25 13:55:00,
2013-02-25 09:05:00,34.3,32.8,30.08,WNW,289,0.0,0.0,94,0.00,,,0.00,WeatherTracker,2013-02-25 14:05:00,
2013-02-25 09:15:00,34.6,33.1,30.09,NW,308,0.0,0.0,94,0.00,,,0.00,WeatherTracker,2013-02-25 14:15:00,
2013-02-25 09:25:00,35.3,33.5,30.09,East,80,2.0,0.0,93,0.01,,,0.01,WeatherTracker,2013-02-25 14:25:00,
2013-02-25 09:30:00,35.7,33.6,30.09,East,84,1.0,0.0,92,0.01,,,0.01,WeatherTracker,2013-02-25 14:30:00,
2013-02-25 09:35:00,36.1,34.0,30.09,East,83,0.0,0.0,92,0.02,,,0.02,WeatherTracker,2013-02-25 14:35:00,
2013-02-25 09:40:00,36.4,34.0,30.09,ESE,106,2.0,0.0,91,0.02,,,0.02,WeatherTracker,2013-02-25 14:40:00,
2013-02-25 09:50:00,37.2,34.3,30.09,SE,131,4.0,0.0,89,0.03,,,0.03,WeatherTracker,2013-02-25 14:50:00,
2013-02-25 10:00:00,37.3,34.1,30.10,East,100,3.0,0.0,88,0.04,,,0.04,WeatherTracker,2013-02-25 15:00:00,
2013-02-25 10:05:00,37.5,34.3,30.10,East,92,2.0,0.0,88,0.04,,,0.04,WeatherTracker,2013-02-25 15:05:00,
2013-02-25 10:15:00,37.7,33.9,30.10,East,90,2.0,0.0,86,0.06,,,0.06,WeatherTracker,2013-02-25 15:15:00,
2013-02-25 10:20:00,37.7,33.9,30.11,East,92,0.0,0.0,86,0.05,,,0.06,WeatherTracker,2013-02-25 15:20:00,
2013-02-25 10:25:00,37.8,34.3,30.11,ENE,78,2.0,0.0,87,0.06,,,0.07,WeatherTracker,2013-02-25 15:25:00,
2013-02-25 10:30:00,37.7,33.9,30.11,ENE,77,3.0,0.0,86,0.06,,,0.07,WeatherTracker,2013-02-25 15:30:00,
2013-02-25 10:35:00,37.7,34.2,30.10,ESE,105,3.0,0.0,87,0.06,,,0.08,WeatherTracker,2013-02-25 15:35:00,
2013-02-25 10:45:00,37.9,34.1,30.11,SE,134,0.0,0.0,86,0.06,,,0.09,WeatherTracker,2013-02-25 15:45:00,
2013-02-25 10:55:00,37.7,34.2,30.11,NNE,30,0.0,0.0,87,0.08,,,0.11,WeatherTracker,2013-02-25 15:55:00,
2013-02-25 11:00:00,37.8,34.3,30.11,ENE,77,2.0,0.0,87,0.07,,,0.11,WeatherTracker,2013-02-25 16:00:00,
2013-02-25 11:10:00,37.8,34.6,30.11,ENE,59,2.0,0.0,88,0.08,,,0.13,WeatherTracker,2013-02-25 16:10:00,
2013-02-25 11:20:00,37.9,34.4,30.11,ESE,119,2.0,0.0,87,0.08,,,0.14,WeatherTracker,2013-02-25 16:20:00,
2013-02-25 11:30:00,38.3,34.5,30.11,East,92,2.0,0.0,86,0.09,,,0.16,WeatherTracker,2013-02-25 16:30:00,
2013-02-25 11:40:00,38.4,34.3,30.11,SSE,163,1.0,0.0,85,0.09,,,0.17,WeatherTracker,2013-02-25 16:40:00,
2013-02-25 11:45:00,38.1,34.0,30.11,East,90,2.0,0.0,85,0.09,,,0.18,WeatherTracker,2013-02-25 16:45:00,
2013-02-25 11:50:00,38.2,34.4,30.11,East,92,0.0,0.0,86,0.09,,,0.19,WeatherTracker,2013-02-25 16:50:00,
2013-02-25 12:00:00,38.4,34.0,30.11,ESE,105,0.0,0.0,84,0.09,,,0.20,WeatherTracker,2013-02-25 17:00:00,
2013-02-25 12:05:00,38.5,34.1,30.11,SE,144,4.0,0.0,84,0.09,,,0.21,WeatherTracker,2013-02-25 17:05:00,
2013-02-25 12:15:00,38.7,34.6,30.11,ESE,123,2.0,0.0,85,0.10,,,0.23,WeatherTracker,2013-02-25 17:15:00,
2013-02-25 12:25:00,38.8,34.4,30.11,ENE,61,2.0,0.0,84,0.09,,,0.24,WeatherTracker,2013-02-25 17:25:00,
2013-02-25 12:35:00,38.6,34.2,30.11,ENE,70,3.0,0.0,84,0.08,,,0.25,WeatherTracker,2013-02-25 17:35:00,
2013-02-25 12:40:00,38.6,34.2,30.11,ESE,119,2.0,0.0,84,0.09,,,0.26,WeatherTracker,2013-02-25 17:40:00,
2013-02-25 12:45:00,38.7,34.3,30.11,ESE,123,2.0,0.0,84,0.09,,,0.27,WeatherTracker,2013-02-25 17:45:00,
2013-02-25 12:50:00,39.0,34.6,30.12,ENE,61,1.0,0.0,84,0.08,,,0.27,WeatherTracker,2013-02-25 17:50:00,
2013-02-25 13:00:00,38.8,34.1,30.12,ENE,78,0.0,0.0,83,0.09,,,0.29,WeatherTracker,2013-02-25 18:00:00,
2013-02-25 13:05:00,39.0,34.3,30.13,NNW,340,1.0,0.0,83,0.08,,,0.29,WeatherTracker,2013-02-25 18:05:00,
2013-02-25 13:15:00,38.9,33.9,30.13,ENE,63,0.0,0.0,82,0.07,,,0.30,WeatherTracker,2013-02-25 18:15:00,
2013-02-25 13:25:00,39.3,34.6,30.14,East,91,0.0,0.0,83,0.07,,,0.31,WeatherTracker,2013-02-25 18:25:00,
2013-02-25 13:30:00,39.3,34.0,30.14,NNW,331,2.0,0.0,81,0.06,,,0.31,WeatherTracker,2013-02-25 18:30:00,
2013-02-25 13:35:00,39.2,34.2,30.14,ENE,69,0.0,0.0,82,0.07,,,0.32,WeatherTracker,2013-02-25 18:35:00,
2013-02-25 13:40:00,39.3,34.0,30.14,ENE,76,1.0,0.0,81,0.06,,,0.32,WeatherTracker,2013-02-25 18:40:00,
2013-02-25 13:45:00,39.4,33.8,30.14,SSE,151,2.0,0.0,80,0.06,,,0.33,WeatherTracker,2013-02-25 18:45:00,
2013-02-25 13:50:00,39.7,33.7,30.14,SSE,166,1.0,0.0,79,0.06,,,0.33,WeatherTracker,2013-02-25 18:50:00,
2013-02-25 14:00:00,39.9,33.0,30.14,ESE,111,2.0,0.0,76,0.05,,,0.34,WeatherTracker,2013-02-25 19:00:00,
2013-02-25 14:05:00,39.7,32.8,30.14,SE,130,0.0,0.0,76,0.05,,,0.34,WeatherTracker,2013-02-25 19:05:00,
2013-02-25 14:15:00,39.6,33.0,30.14,East,97,0.0,0.0,77,0.05,,,0.35,WeatherTracker,2013-02-25 19:15:00,
2013-02-25 14:25:00,39.9,33.3,30.14,ESE,103,0.0,0.0,77,0.05,,,0.36,WeatherTracker,2013-02-25 19:25:00,
2013-02-25 14:35:00,40.0,33.1,30.14,SE,125,0.0,0.0,76,0.05,,,0.37,WeatherTracker,2013-02-25 19:35:00,
2013-02-25 14:40:00,39.8,32.9,30.14,NE,46,2.0,0.0,76,0.05,,,0.37,WeatherTracker,2013-02-25 19:40:00,
2013-02-25 14:45:00,39.5,32.9,30.15,East,86,1.0,0.0,77,0.04,,,0.37,WeatherTracker,2013-02-25 19:45:00,
2013-02-25 14:50:00,39.3,33.0,30.15,North,355,0.0,0.0,78,0.04,,,0.37,WeatherTracker,2013-02-25 19:50:00,
2013-02-25 15:00:00,38.9,33.0,30.15,NE,55,0.0,0.0,79,0.04,,,0.38,WeatherTracker,2013-02-25 20:00:00,
2013-02-25 15:05:00,38.9,33.3,30.16,East,90,0.0,0.0,80,0.04,,,0.38,WeatherTracker,2013-02-25 20:05:00,
2013-02-25 15:15:00,38.9,33.0,30.16,East,84,0.0,0.0,79,0.03,,,0.38,WeatherTracker,2013-02-25 20:15:00,
2013-02-25 15:20:00,38.9,33.0,30.16,North,9,1.0,0.0,79,0.03,,,0.38,WeatherTracker,2013-02-25 20:20:00,
2013-02-25 15:25:00,38.9,33.0,30.16,NNW,333,1.0,0.0,79,0.03,,,0.39,WeatherTracker,2013-02-25 20:25:00,
2013-02-25 15:30:00,39.0,33.0,30.16,NNW,336,2.0,0.0,79,0.03,,,0.39,WeatherTracker,2013-02-25 20:30:00,
2013-02-25 15:35:00,38.8,32.9,30.16,NNE,17,1.0,0.0,79,0.02,,,0.39,WeatherTracker,2013-02-25 20:35:00,
2013-02-25 15:45:00,38.7,33.1,30.16,North,5,3.0,0.0,80,0.02,,,0.39,WeatherTracker,2013-02-25 20:45:00,
2013-02-25 15:50:00,38.6,33.3,30.16,North,360,0.0,0.0,81,0.02,,,0.39,WeatherTracker,2013-02-25 20:50:00,
2013-02-25 15:55:00,38.5,33.2,30.16,North,5,0.0,0.0,81,0.02,,,0.39,WeatherTracker,2013-02-25 20:55:00,
2013-02-25 16:05:00,38.3,33.3,30.16,NNW,342,3.0,0.0,82,0.01,,,0.39,WeatherTracker,2013-02-25 21:05:00,
2013-02-25 16:10:00,38.2,33.2,30.16,NNE,20,1.0,0.0,82,0.01,,,0.39,WeatherTracker,2013-02-25 21:10:00,
2013-02-25 16:20:00,38.0,33.6,30.16,North,355,0.0,0.0,84,0.02,,,0.40,WeatherTracker,2013-02-25 21:20:00,
2013-02-25 16:30:00,37.8,33.7,30.17,NNW,344,0.0,0.0,85,0.01,,,0.40,WeatherTracker,2013-02-25 21:30:00,
2013-02-25 16:35:00,37.8,33.7,30.17,North,355,0.0,0.0,85,0.01,,,0.40,WeatherTracker,2013-02-25 21:35:00,
2013-02-25 16:40:00,37.7,33.6,30.17,North,355,0.0,0.0,85,0.01,,,0.40,WeatherTracker,2013-02-25 21:40:00,
2013-02-25 16:50:00,37.6,33.5,30.18,NW,325,0.0,0.0,85,0.01,,,0.40,WeatherTracker,2013-02-25 21:50:00,
2013-02-25 16:55:00,37.5,33.4,30.18,NNW,327,0.0,0.0,85,0.01,,,0.40,WeatherTracker,2013-02-25 21:55:00,
2013-02-25 17:05:00,37.4,33.6,30.18,NNW,328,0.0,0.0,86,0.01,,,0.40,WeatherTracker,2013-02-25 22:05:00,
2013-02-25 17:15:00,37.3,33.5,30.18,NNW,329,0.0,0.0,86,0.00,,,0.40,WeatherTracker,2013-02-25 22:15:00,
2013-02-25 17:20:00,37.3,33.5,30.18,NNW,329,0.0,0.0,86,0.00,,,0.40,WeatherTracker,2013-02-25 22:20:00,
2013-02-25 17:25:00,37.3,33.5,30.18,NNW,329,0.0,0.0,86,0.00,,,0.40,WeatherTracker,2013-02-25 22:25:00,
2013-02-25 17:30:00,37.2,33.4,30.18,NNW,329,0.0,0.0,86,0.00,,,0.40,WeatherTracker,2013-02-25 22:30:00,
2013-02-25 17:40:00,37.2,33.7,30.18,NNW,329,0.0,0.0,87,0.00,,,0.40,WeatherTracker,2013-02-25 22:40:00,
2013-02-25 17:50:00,37.1,33.6,30.18,NNW,328,0.0,0.0,87,0.00,,,0.40,WeatherTracker,2013-02-25 22:50:00,
2013-02-25 17:55:00,37.0,33.8,30.18,NNW,328,0.0,0.0,88,0.00,,,0.40,WeatherTracker,2013-02-25 22:55:00,
2013-02-25 18:00:00,36.9,33.7,30.18,NNW,329,0.0,0.0,88,0.00,,,0.40,WeatherTracker,2013-02-25 23:00:00,
2013-02-25 18:05:00,36.8,33.9,30.18,NNW,329,0.0,0.0,89,0.00,,,0.40,WeatherTracker,2013-02-25 23:05:00,
2013-02-25 18:15:00,36.5,33.6,30.19,NNW,329,0.0,0.0,89,0.00,,,0.40,WeatherTracker,2013-02-25 23:15:00,
2013-02-25 18:20:00,36.5,33.6,30.19,NNW,329,0.0,0.0,89,0.00,,,0.40,WeatherTracker,2013-02-25 23:20:00,
2013-02-25 18:25:00,36.4,33.8,30.19,NNW,328,1.0,0.0,90,0.00,,,0.40,WeatherTracker,2013-02-25 23:25:00,
2013-02-25 18:35:00,36.0,33.6,30.19,NNW,328,0.0,0.0,91,0.00,,,0.40,WeatherTracker,2013-02-25 23:35:00,
2013-02-25 18:40:00,35.9,33.5,30.20,NNW,328,0.0,0.0,91,0.00,,,0.40,WeatherTracker,2013-02-25 23:40:00,
2013-02-25 18:45:00,35.8,33.7,30.20,NNW,328,0.0,0.0,92,0.00,,,0.40,WeatherTracker,2013-02-25 23:45:00,
2013-02-25 18:50:00,35.7,33.6,30.20,NNW,328,0.0,0.0,92,0.00,,,0.40,WeatherTracker,2013-02-25 23:50:00,
2013-02-25 19:00:00,35.6,33.8,30.21,NNW,328,0.0,0.0,93,0.00,,,0.40,WeatherTracker,2013-02-26 00:00:00,
2013-02-25 19:05:00,35.5,33.7,30.21,NNW,328,1.0,0.0,93,0.00,,,0.40,WeatherTracker,2013-02-26 00:05:00,
2013-02-25 19:10:00,35.4,33.6,30.21,NNW,328,0.0,0.0,93,0.01,,,0.41,WeatherTracker,2013-02-26 00:10:00,
2013-02-25 19:20:00,35.3,33.5,30.21,NNW,328,0.0,0.0,93,0.01,,,0.41,WeatherTracker,2013-02-26 00:20:00,
2013-02-25 19:25:00,35.2,33.4,30.21,NNW,328,0.0,0.0,93,0.01,,,0.41,WeatherTracker,2013-02-26 00:25:00,
2013-02-25 19:30:00,35.2,33.4,30.22,NNW,328,0.0,0.0,93,0.01,,,0.41,WeatherTracker,2013-02-26 00:30:00,
2013-02-25 19:35:00,35.1,33.6,30.22,NNW,328,0.0,0.0,94,0.01,,,0.41,WeatherTracker,2013-02-26 00:35:00,
2013-02-25 19:40:00,35.1,33.6,30.22,NNW,328,0.0,0.0,94,0.01,,,0.41,WeatherTracker,2013-02-26 00:40:00,
2013-02-25 19:45:00,35.0,33.5,30.22,NNW,328,0.0,0.0,94,0.01,,,0.41,WeatherTracker,2013-02-26 00:45:00,
2013-02-25 19:50:00,35.0,33.5,30.22,NNW,328,0.0,0.0,94,0.01,,,0.41,WeatherTracker,2013-02-26 00:50:00,
2013-02-25 20:00:00,34.8,33.3,30.23,NNW,328,0.0,0.0,94,0.01,,,0.41,WeatherTracker,2013-02-26 01:00:00,
2013-02-25 20:05:00,34.7,33.2,30.23,NNW,328,0.0,0.0,94,0.01,,,0.41,WeatherTracker,2013-02-26 01:05:00,
2013-02-25 20:15:00,34.6,33.1,30.23,NNW,328,0.0,0.0,94,0.00,,,0.41,WeatherTracker,2013-02-26 01:15:00,
2013-02-25 20:25:00,34.6,33.1,30.23,NNW,328,0.0,0.0,94,0.00,,,0.41,WeatherTracker,2013-02-26 01:25:00,
2013-02-25 20:30:00,34.6,33.3,30.23,NNW,328,0.0,0.0,95,0.00,,,0.41,WeatherTracker,2013-02-26 01:30:00,
2013-02-25 20:35:00,34.5,33.2,30.23,NNW,328,0.0,0.0,95,0.00,,,0.41,WeatherTracker,2013-02-26 01:35:00,
2013-02-25 20:40:00,34.5,33.2,30.23,NNW,328,0.0,0.0,95,0.00,,,0.41,WeatherTracker,2013-02-26 01:40:00,
2013-02-25 20:50:00,34.5,33.2,30.23,NNW,328,0.0,0.0,95,0.00,,,0.41,WeatherTracker,2013-02-26 01:50:00,
2013-02-25 20:55:00,34.5,33.2,30.23,NNW,328,0.0,0.0,95,0.00,,,0.41,WeatherTracker,2013-02-26 01:55:00,
2013-02-25 21:00:00,34.5,33.2,30.23,NNW,328,0.0,0.0,95,0.00,,,0.41,WeatherTracker,2013-02-26 02:00:00,
2013-02-25 21:05:00,34.5,33.2,30.23,NNW,328,0.0,0.0,95,0.00,,,0.41,WeatherTracker,2013-02-26 02:05:00,
2013-02-25 21:15:00,34.4,33.1,30.23,NNW,328,0.0,0.0,95,0.00,,,0.41,WeatherTracker,2013-02-26 02:15:00,
2013-02-25 21:20:00,34.4,33.1,30.22,NNW,328,0.0,0.0,95,0.00,,,0.41,WeatherTracker,2013-02-26 02:20:00,
2013-02-25 21:25:00,34.3,33.0,30.22,NNW,328,0.0,0.0,95,0.00,,,0.41,WeatherTracker,2013-02-26 02:25:00,
2013-02-25 21:30:00,34.3,33.0,30.22,NNW,328,1.0,0.0,95,0.00,,,0.41,WeatherTracker,2013-02-26 02:30:00,
2013-02-25 21:40:00,34.2,32.9,30.22,NNW,328,0.0,0.0,95,0.00,,,0.41,WeatherTracker,2013-02-26 02:40:00,
2013-02-25 21:45:00,34.2,32.9,30.22,NNW,328,1.0,0.0,95,0.00,,,0.41,WeatherTracker,2013-02-26 02:45:00,
2013-02-25 21:50:00,34.1,32.8,30.22,NNW,328,0.0,0.0,95,0.00,,,0.41,WeatherTracker,2013-02-26 02:50:00,
2013-02-25 22:00:00,33.9,32.6,30.22,NNW,328,0.0,0.0,95,0.00,,,0.41,WeatherTracker,2013-02-26 03:00:00,
2013-02-25 22:10:00,33.7,32.4,30.22,NNW,328,1.0,0.0,95,0.00,,,0.41,WeatherTracker,2013-02-26 03:10:00,
2013-02-25 22:15:00,33.6,32.3,30.22,NNW,328,1.0,0.0,95,0.00,,,0.41,WeatherTracker,2013-02-26 03:15:00,
2013-02-25 22:20:00,33.5,32.2,30.23,NNW,328,0.0,0.0,95,0.00,,,0.41,WeatherTracker,2013-02-26 03:20:00,
2013-02-25 22:30:00,33.4,32.1,30.22,NNW,328,2.0,0.0,95,0.00,,,0.41,WeatherTracker,2013-02-26 03:30:00,
2013-02-25 22:40:00,33.3,32.3,30.23,NW,322,0.0,0.0,96,0.00,,,0.41,WeatherTracker,2013-02-26 03:40:00,
2013-02-25 22:45:00,33.2,32.2,30.23,NW,322,0.0,0.0,96,0.00,,,0.41,WeatherTracker,2013-02-26 03:45:00,
2013-02-25 22:50:00,33.2,32.2,30.23,NW,322,0.0,0.0,96,0.00,,,0.41,WeatherTracker,2013-02-26 03:50:00,
2013-02-25 22:55:00,33.2,32.2,30.23,NW,322,1.0,0.0,96,0.00,,,0.41,WeatherTracker,2013-02-26 03:55:00,
2013-02-25 23:05:00,33.2,32.2,30.23,NW,322,0.0,0.0,96,0.00,,,0.41,WeatherTracker,2013-02-26 04:05:00,
2013-02-25 23:15:00,33.2,32.2,30.23,NW,322,0.0,0.0,96,0.00,,,0.41,WeatherTracker,2013-02-26 04:15:00,
2013-02-25 23:20:00,33.3,32.3,30.23,NW,322,1.0,0.0,96,0.00,,,0.41,WeatherTracker,2013-02-26 04:20:00,
2013-02-25 23:25:00,33.3,32.3,30.24,NW,322,0.0,0.0,96,0.00,,,0.41,WeatherTracker,2013-02-26 04:25:00,
2013-02-25 23:30:00,33.4,32.4,30.24,NW,322,0.0,0.0,96,0.00,,,0.41,WeatherTracker,2013-02-26 04:30:00,
2013-02-25 23:40:00,33.4,32.4,30.25,NW,322,0.0,0.0,96,0.00,,,0.41,WeatherTracker,2013-02-26 04:40:00,
2013-02-25 23:45:00,33.4,32.4,30.25,NW,322,0.0,0.0,96,0.00,,,0.41,WeatherTracker,2013-02-26 04:45:00,
2013-02-25 23:50:00,33.4,32.4,30.25,NW,322,0.0,0.0,96,0.00,,,0.41,WeatherTracker,2013-02-26 04:50:00,